sensor_id;sensor_type;location;lat;lon;timestamp;P1;durP1;ratioP1;P2;durP2;ratioP2
40591;SDS011;26301;42.832;23.918;2023-12-20T00:01:36;2.00;;;0.90;;
40591;SDS011;26301;42.832;23.918;2023-12-20T00:04:02;4.10;;;1.03;;
40591;SDS011;26301;42.832;23.918;2023-12-20T00:06:29;1.40;;;0.60;;
40591;SDS011;26301;42.832;23.918;2023-12-20T00:08:56;0.87;;;0.70;;
40591;SDS011;26301;42.832;23.918;2023-12-20T00:11:23;1.13;;;0.60;;
40591;SDS011;26301;42.832;23.918;2023-12-20T00:13:50;1.70;;;0.90;;
40591;SDS011;26301;42.832;23.918;2023-12-20T00:16:16;1.80;;;0.80;;
40591;SDS011;26301;42.832;23.918;2023-12-20T00:18:42;0.80;;;0.50;;
40591;SDS011;26301;42.832;23.918;2023-12-20T00:21:07;1.00;;;0.60;;
40591;SDS011;26301;42.832;23.918;2023-12-20T00:23:33;2.40;;;0.70;;
40591;SDS011;26301;42.832;23.918;2023-12-20T00:26:00;0.93;;;0.60;;
40591;SDS011;26301;42.832;23.918;2023-12-20T00:28:26;1.57;;;0.73;;
40591;SDS011;26301;42.832;23.918;2023-12-20T00:30:51;0.67;;;0.40;;
40591;SDS011;26301;42.832;23.918;2023-12-20T00:33:18;0.93;;;0.67;;
40591;SDS011;26301;42.832;23.918;2023-12-20T00:35:44;0.40;;;0.40;;
40591;SDS011;26301;42.832;23.918;2023-12-20T00:38:10;0.93;;;0.50;;
40591;SDS011;26301;42.832;23.918;2023-12-20T00:40:36;1.00;;;0.63;;
40591;SDS011;26301;42.832;23.918;2023-12-20T00:43:03;0.30;;;0.30;;
40591;SDS011;26301;42.832;23.918;2023-12-20T00:45:29;2.67;;;1.47;;
40591;SDS011;26301;42.832;23.918;2023-12-20T00:47:55;1.10;;;0.57;;
40591;SDS011;26301;42.832;23.918;2023-12-20T00:50:21;0.53;;;0.40;;
40591;SDS011;26301;42.832;23.918;2023-12-20T00:52:48;1.33;;;0.67;;
40591;SDS011;26301;42.832;23.918;2023-12-20T00:55:13;1.33;;;0.70;;
40591;SDS011;26301;42.832;23.918;2023-12-20T00:57:39;0.63;;;0.37;;
40591;SDS011;26301;42.832;23.918;2023-12-20T01:00:06;0.57;;;0.30;;
40591;SDS011;26301;42.832;23.918;2023-12-20T01:02:35;1.17;;;0.40;;
40591;SDS011;26301;42.832;23.918;2023-12-20T01:05:01;0.50;;;0.40;;
40591;SDS011;26301;42.832;23.918;2023-12-20T01:07:28;3.20;;;1.73;;
40591;SDS011;26301;42.832;23.918;2023-12-20T01:09:54;5.73;;;2.30;;
40591;SDS011;26301;42.832;23.918;2023-12-20T01:12:20;3.27;;;1.20;;
40591;SDS011;26301;42.832;23.918;2023-12-20T01:14:47;0.73;;;0.40;;
40591;SDS011;26301;42.832;23.918;2023-12-20T01:17:13;0.30;;;0.30;;
40591;SDS011;26301;42.832;23.918;2023-12-20T01:19:39;0.30;;;0.20;;
40591;SDS011;26301;42.832;23.918;2023-12-20T01:22:05;0.40;;;0.20;;
40591;SDS011;26301;42.832;23.918;2023-12-20T01:24:31;11.63;;;5.10;;
40591;SDS011;26301;42.832;23.918;2023-12-20T01:26:57;16.47;;;7.33;;
40591;SDS011;26301;42.832;23.918;2023-12-20T01:29:24;17.07;;;6.30;;
40591;SDS011;26301;42.832;23.918;2023-12-20T01:31:50;11.43;;;4.97;;
40591;SDS011;26301;42.832;23.918;2023-12-20T01:34:16;9.07;;;4.93;;
40591;SDS011;26301;42.832;23.918;2023-12-20T01:36:42;7.50;;;3.80;;
40591;SDS011;26301;42.832;23.918;2023-12-20T01:39:08;9.40;;;4.70;;
40591;SDS011;26301;42.832;23.918;2023-12-20T01:41:34;2.47;;;1.33;;
40591;SDS011;26301;42.832;23.918;2023-12-20T01:44:01;1.00;;;0.50;;
40591;SDS011;26301;42.832;23.918;2023-12-20T01:46:27;0.97;;;0.30;;
40591;SDS011;26301;42.832;23.918;2023-12-20T01:48:53;0.90;;;0.47;;
40591;SDS011;26301;42.832;23.918;2023-12-20T01:51:19;0.93;;;0.30;;
40591;SDS011;26301;42.832;23.918;2023-12-20T01:53:46;0.40;;;0.30;;
40591;SDS011;26301;42.832;23.918;2023-12-20T01:56:13;0.50;;;0.40;;
40591;SDS011;26301;42.832;23.918;2023-12-20T01:58:43;0.33;;;0.20;;
40591;SDS011;26301;42.832;23.918;2023-12-20T02:01:11;0.77;;;0.40;;
40591;SDS011;26301;42.832;23.918;2023-12-20T02:03:41;2.87;;;0.40;;
40591;SDS011;26301;42.832;23.918;2023-12-20T02:06:09;3.20;;;0.40;;
40591;SDS011;26301;42.832;23.918;2023-12-20T02:08:35;0.30;;;0.30;;
40591;SDS011;26301;42.832;23.918;2023-12-20T02:11:02;1.63;;;0.30;;
40591;SDS011;26301;42.832;23.918;2023-12-20T02:13:28;1.23;;;0.47;;
40591;SDS011;26301;42.832;23.918;2023-12-20T02:15:55;0.43;;;0.43;;
40591;SDS011;26301;42.832;23.918;2023-12-20T02:18:22;0.40;;;0.33;;
40591;SDS011;26301;42.832;23.918;2023-12-20T02:20:48;0.40;;;0.30;;
40591;SDS011;26301;42.832;23.918;2023-12-20T02:23:14;0.30;;;0.30;;
40591;SDS011;26301;42.832;23.918;2023-12-20T02:25:40;0.30;;;0.30;;
40591;SDS011;26301;42.832;23.918;2023-12-20T02:28:07;0.20;;;0.20;;
40591;SDS011;26301;42.832;23.918;2023-12-20T02:30:33;0.30;;;0.30;;
40591;SDS011;26301;42.832;23.918;2023-12-20T02:32:59;1.90;;;0.40;;
40591;SDS011;26301;42.832;23.918;2023-12-20T02:35:26;0.30;;;0.20;;
40591;SDS011;26301;42.832;23.918;2023-12-20T02:37:52;0.63;;;0.40;;
40591;SDS011;26301;42.832;23.918;2023-12-20T02:40:18;0.60;;;0.40;;
40591;SDS011;26301;42.832;23.918;2023-12-20T02:42:44;0.43;;;0.30;;
40591;SDS011;26301;42.832;23.918;2023-12-20T02:45:11;1.43;;;0.67;;
40591;SDS011;26301;42.832;23.918;2023-12-20T02:47:38;0.30;;;0.30;;
40591;SDS011;26301;42.832;23.918;2023-12-20T02:50:04;2.17;;;0.30;;
40591;SDS011;26301;42.832;23.918;2023-12-20T02:52:30;0.60;;;0.50;;
40591;SDS011;26301;42.832;23.918;2023-12-20T02:54:57;2.40;;;0.40;;
40591;SDS011;26301;42.832;23.918;2023-12-20T02:57:23;0.47;;;0.40;;
40591;SDS011;26301;42.832;23.918;2023-12-20T02:59:49;1.60;;;0.40;;
40591;SDS011;26301;42.832;23.918;2023-12-20T03:02:16;0.40;;;0.37;;
40591;SDS011;26301;42.832;23.918;2023-12-20T03:04:45;0.20;;;0.20;;
40591;SDS011;26301;42.832;23.918;2023-12-20T03:07:11;0.30;;;0.30;;
40591;SDS011;26301;42.832;23.918;2023-12-20T03:09:37;0.43;;;0.43;;
40591;SDS011;26301;42.832;23.918;2023-12-20T03:12:03;0.30;;;0.30;;
40591;SDS011;26301;42.832;23.918;2023-12-20T03:14:30;0.70;;;0.40;;
40591;SDS011;26301;42.832;23.918;2023-12-20T03:16:55;0.30;;;0.30;;
40591;SDS011;26301;42.832;23.918;2023-12-20T03:19:21;0.77;;;0.30;;
40591;SDS011;26301;42.832;23.918;2023-12-20T03:21:47;1.27;;;0.23;;
40591;SDS011;26301;42.832;23.918;2023-12-20T03:24:13;0.30;;;0.30;;
40591;SDS011;26301;42.832;23.918;2023-12-20T03:26:39;1.43;;;0.77;;
40591;SDS011;26301;42.832;23.918;2023-12-20T03:29:06;8.10;;;4.47;;
40591;SDS011;26301;42.832;23.918;2023-12-20T03:31:31;3.23;;;1.83;;
40591;SDS011;26301;42.832;23.918;2023-12-20T03:33:58;5.10;;;2.73;;
40591;SDS011;26301;42.832;23.918;2023-12-20T03:36:24;6.83;;;1.30;;
40591;SDS011;26301;42.832;23.918;2023-12-20T03:38:50;1.83;;;1.30;;
40591;SDS011;26301;42.832;23.918;2023-12-20T03:41:15;0.87;;;0.83;;
40591;SDS011;26301;42.832;23.918;2023-12-20T03:43:42;1.03;;;0.70;;
40591;SDS011;26301;42.832;23.918;2023-12-20T03:46:08;1.20;;;0.73;;
40591;SDS011;26301;42.832;23.918;2023-12-20T03:48:34;0.40;;;0.40;;
40591;SDS011;26301;42.832;23.918;2023-12-20T03:51:00;0.50;;;0.30;;
40591;SDS011;26301;42.832;23.918;2023-12-20T03:53:26;0.30;;;0.30;;
40591;SDS011;26301;42.832;23.918;2023-12-20T03:55:53;2.67;;;0.33;;
40591;SDS011;26301;42.832;23.918;2023-12-20T03:58:19;0.43;;;0.40;;
40591;SDS011;26301;42.832;23.918;2023-12-20T04:00:46;0.30;;;0.30;;
40591;SDS011;26301;42.832;23.918;2023-12-20T04:03:12;0.20;;;0.20;;
40591;SDS011;26301;42.832;23.918;2023-12-20T04:05:40;0.40;;;0.40;;
40591;SDS011;26301;42.832;23.918;2023-12-20T04:08:07;0.37;;;0.37;;
40591;SDS011;26301;42.832;23.918;2023-12-20T04:10:34;0.20;;;0.20;;
40591;SDS011;26301;42.832;23.918;2023-12-20T04:13:02;0.30;;;0.30;;
40591;SDS011;26301;42.832;23.918;2023-12-20T04:15:28;0.20;;;0.20;;
40591;SDS011;26301;42.832;23.918;2023-12-20T04:17:54;0.20;;;0.20;;
40591;SDS011;26301;42.832;23.918;2023-12-20T04:20:20;0.13;;;0.13;;
40591;SDS011;26301;42.832;23.918;2023-12-20T04:22:46;0.70;;;0.40;;
40591;SDS011;26301;42.832;23.918;2023-12-20T04:25:13;0.30;;;0.30;;
40591;SDS011;26301;42.832;23.918;2023-12-20T04:27:39;1.17;;;0.50;;
40591;SDS011;26301;42.832;23.918;2023-12-20T04:30:05;0.40;;;0.40;;
40591;SDS011;26301;42.832;23.918;2023-12-20T04:32:31;0.40;;;0.40;;
40591;SDS011;26301;42.832;23.918;2023-12-20T04:34:57;0.40;;;0.40;;
40591;SDS011;26301;42.832;23.918;2023-12-20T04:37:23;0.67;;;0.43;;
40591;SDS011;26301;42.832;23.918;2023-12-20T04:39:50;0.60;;;0.53;;
40591;SDS011;26301;42.832;23.918;2023-12-20T04:42:16;1.67;;;0.37;;
40591;SDS011;26301;42.832;23.918;2023-12-20T04:44:42;0.30;;;0.30;;
40591;SDS011;26301;42.832;23.918;2023-12-20T04:47:09;1.00;;;0.50;;
40591;SDS011;26301;42.832;23.918;2023-12-20T04:49:35;3.40;;;1.60;;
40591;SDS011;26301;42.832;23.918;2023-12-20T04:52:02;4.13;;;2.10;;
40591;SDS011;26301;42.832;23.918;2023-12-20T04:54:28;2.63;;;1.30;;
40591;SDS011;26301;42.832;23.918;2023-12-20T04:56:54;2.90;;;1.60;;
40591;SDS011;26301;42.832;23.918;2023-12-20T04:59:20;4.07;;;2.30;;
40591;SDS011;26301;42.832;23.918;2023-12-20T05:01:47;2.50;;;1.20;;
40591;SDS011;26301;42.832;23.918;2023-12-20T05:04:13;1.17;;;0.73;;
40591;SDS011;26301;42.832;23.918;2023-12-20T05:06:39;0.50;;;0.40;;
40591;SDS011;26301;42.832;23.918;2023-12-20T05:09:04;0.63;;;0.60;;
40591;SDS011;26301;42.832;23.918;2023-12-20T05:11:31;1.43;;;0.70;;
40591;SDS011;26301;42.832;23.918;2023-12-20T05:13:57;0.80;;;0.60;;
40591;SDS011;26301;42.832;23.918;2023-12-20T05:16:23;0.50;;;0.40;;
40591;SDS011;26301;42.832;23.918;2023-12-20T05:18:50;0.30;;;0.30;;
40591;SDS011;26301;42.832;23.918;2023-12-20T05:21:17;0.70;;;0.50;;
40591;SDS011;26301;42.832;23.918;2023-12-20T05:23:44;1.67;;;1.00;;
40591;SDS011;26301;42.832;23.918;2023-12-20T05:26:10;1.67;;;1.30;;
40591;SDS011;26301;42.832;23.918;2023-12-20T05:28:36;1.83;;;1.40;;
40591;SDS011;26301;42.832;23.918;2023-12-20T05:31:01;1.50;;;1.30;;
40591;SDS011;26301;42.832;23.918;2023-12-20T05:33:28;1.50;;;1.10;;
40591;SDS011;26301;42.832;23.918;2023-12-20T05:35:54;0.80;;;0.77;;
40591;SDS011;26301;42.832;23.918;2023-12-20T05:38:20;0.80;;;0.80;;
40591;SDS011;26301;42.832;23.918;2023-12-20T05:40:46;1.90;;;0.90;;
40591;SDS011;26301;42.832;23.918;2023-12-20T05:43:12;0.83;;;0.60;;
40591;SDS011;26301;42.832;23.918;2023-12-20T05:45:38;2.50;;;0.90;;
40591;SDS011;26301;42.832;23.918;2023-12-20T05:48:04;0.83;;;0.80;;
40591;SDS011;26301;42.832;23.918;2023-12-20T05:50:31;0.73;;;0.60;;
40591;SDS011;26301;42.832;23.918;2023-12-20T05:52:57;3.03;;;0.90;;
40591;SDS011;26301;42.832;23.918;2023-12-20T05:55:23;6.20;;;0.90;;
40591;SDS011;26301;42.832;23.918;2023-12-20T05:57:49;25.60;;;11.90;;
40591;SDS011;26301;42.832;23.918;2023-12-20T06:00:16;5.43;;;2.90;;
40591;SDS011;26301;42.832;23.918;2023-12-20T06:02:42;8.43;;;4.57;;
40591;SDS011;26301;42.832;23.918;2023-12-20T06:05:09;3.57;;;2.20;;
40591;SDS011;26301;42.832;23.918;2023-12-20T06:07:35;1.87;;;1.13;;
40591;SDS011;26301;42.832;23.918;2023-12-20T06:10:01;2.37;;;0.80;;
40591;SDS011;26301;42.832;23.918;2023-12-20T06:12:27;1.60;;;1.10;;
40591;SDS011;26301;42.832;23.918;2023-12-20T06:14:54;5.47;;;1.73;;
40591;SDS011;26301;42.832;23.918;2023-12-20T06:17:20;6.40;;;3.57;;
40591;SDS011;26301;42.832;23.918;2023-12-20T06:19:49;16.93;;;6.53;;
40591;SDS011;26301;42.832;23.918;2023-12-20T06:22:17;13.87;;;5.50;;
40591;SDS011;26301;42.832;23.918;2023-12-20T06:24:43;16.57;;;6.43;;
40591;SDS011;26301;42.832;23.918;2023-12-20T06:27:09;12.87;;;5.63;;
40591;SDS011;26301;42.832;23.918;2023-12-20T06:29:34;18.07;;;8.00;;
40591;SDS011;26301;42.832;23.918;2023-12-20T06:32:01;16.20;;;7.93;;
40591;SDS011;26301;42.832;23.918;2023-12-20T06:34:27;17.77;;;8.73;;
40591;SDS011;26301;42.832;23.918;2023-12-20T06:36:54;25.00;;;11.10;;
40591;SDS011;26301;42.832;23.918;2023-12-20T06:39:20;29.03;;;11.97;;
40591;SDS011;26301;42.832;23.918;2023-12-20T06:41:46;17.63;;;7.83;;
40591;SDS011;26301;42.832;23.918;2023-12-20T06:44:12;9.50;;;4.70;;
40591;SDS011;26301;42.832;23.918;2023-12-20T06:46:38;7.77;;;4.17;;
40591;SDS011;26301;42.832;23.918;2023-12-20T06:49:04;8.17;;;3.80;;
40591;SDS011;26301;42.832;23.918;2023-12-20T06:51:30;7.77;;;3.60;;
40591;SDS011;26301;42.832;23.918;2023-12-20T06:53:56;10.03;;;4.43;;
40591;SDS011;26301;42.832;23.918;2023-12-20T06:56:22;13.13;;;6.00;;
40591;SDS011;26301;42.832;23.918;2023-12-20T06:58:48;9.60;;;4.40;;
40591;SDS011;26301;42.832;23.918;2023-12-20T07:01:14;5.80;;;2.47;;
40591;SDS011;26301;42.832;23.918;2023-12-20T07:03:41;4.77;;;2.37;;
40591;SDS011;26301;42.832;23.918;2023-12-20T07:06:07;7.30;;;2.93;;
40591;SDS011;26301;42.832;23.918;2023-12-20T07:08:34;3.73;;;2.13;;
40591;SDS011;26301;42.832;23.918;2023-12-20T07:11:01;3.53;;;1.87;;
40591;SDS011;26301;42.832;23.918;2023-12-20T07:13:27;5.50;;;3.40;;
40591;SDS011;26301;42.832;23.918;2023-12-20T07:15:53;4.33;;;2.60;;
40591;SDS011;26301;42.832;23.918;2023-12-20T07:18:19;6.13;;;3.27;;
40591;SDS011;26301;42.832;23.918;2023-12-20T07:20:45;6.37;;;3.80;;
40591;SDS011;26301;42.832;23.918;2023-12-20T07:23:12;7.40;;;3.83;;
40591;SDS011;26301;42.832;23.918;2023-12-20T07:25:38;6.80;;;3.20;;
40591;SDS011;26301;42.832;23.918;2023-12-20T07:28:04;4.40;;;2.40;;
40591;SDS011;26301;42.832;23.918;2023-12-20T07:30:31;4.67;;;2.03;;
40591;SDS011;26301;42.832;23.918;2023-12-20T07:32:57;2.67;;;1.67;;
40591;SDS011;26301;42.832;23.918;2023-12-20T07:35:23;3.23;;;1.73;;
40591;SDS011;26301;42.832;23.918;2023-12-20T07:37:50;3.37;;;2.03;;
40591;SDS011;26301;42.832;23.918;2023-12-20T07:40:16;2.67;;;1.13;;
40591;SDS011;26301;42.832;23.918;2023-12-20T07:42:42;2.83;;;1.60;;
40591;SDS011;26301;42.832;23.918;2023-12-20T07:45:09;1.87;;;1.23;;
40591;SDS011;26301;42.832;23.918;2023-12-20T07:47:36;1.58;;;0.80;;
40591;SDS011;26301;42.832;23.918;2023-12-20T07:50:02;1.70;;;0.80;;
40591;SDS011;26301;42.832;23.918;2023-12-20T07:52:29;1.38;;;0.75;;
40591;SDS011;26301;42.832;23.918;2023-12-20T07:54:55;2.17;;;1.13;;
40591;SDS011;26301;42.832;23.918;2023-12-20T07:57:21;1.45;;;0.85;;
40591;SDS011;26301;42.832;23.918;2023-12-20T07:59:47;4.70;;;1.75;;
40591;SDS011;26301;42.832;23.918;2023-12-20T08:02:13;15.00;;;6.68;;
40591;SDS011;26301;42.832;23.918;2023-12-20T08:04:40;23.60;;;10.18;;
40591;SDS011;26301;42.832;23.918;2023-12-20T08:07:06;12.85;;;6.07;;
40591;SDS011;26301;42.832;23.918;2023-12-20T08:09:33;8.07;;;3.35;;
40591;SDS011;26301;42.832;23.918;2023-12-20T08:12:01;3.47;;;1.95;;
40591;SDS011;26301;42.832;23.918;2023-12-20T08:14:28;4.40;;;2.45;;
40591;SDS011;26301;42.832;23.918;2023-12-20T08:16:54;3.33;;;2.20;;
40591;SDS011;26301;42.832;23.918;2023-12-20T08:19:20;5.05;;;3.05;;
40591;SDS011;26301;42.832;23.918;2023-12-20T08:21:45;4.05;;;2.25;;
40591;SDS011;26301;42.832;23.918;2023-12-20T08:24:12;3.10;;;1.58;;
40591;SDS011;26301;42.832;23.918;2023-12-20T08:26:38;6.13;;;2.17;;
40591;SDS011;26301;42.832;23.918;2023-12-20T08:29:03;4.28;;;2.13;;
40591;SDS011;26301;42.832;23.918;2023-12-20T08:31:30;4.97;;;2.28;;
40591;SDS011;26301;42.832;23.918;2023-12-20T08:33:56;4.07;;;2.00;;
40591;SDS011;26301;42.832;23.918;2023-12-20T08:36:22;4.07;;;1.95;;
40591;SDS011;26301;42.832;23.918;2023-12-20T08:38:48;3.95;;;2.13;;
40591;SDS011;26301;42.832;23.918;2023-12-20T08:41:15;5.68;;;4.03;;
40591;SDS011;26301;42.832;23.918;2023-12-20T08:43:42;3.20;;;2.05;;
40591;SDS011;26301;42.832;23.918;2023-12-20T08:46:08;3.30;;;1.83;;
40591;SDS011;26301;42.832;23.918;2023-12-20T08:48:35;3.97;;;2.20;;
40591;SDS011;26301;42.832;23.918;2023-12-20T08:51:04;3.83;;;2.20;;
40591;SDS011;26301;42.832;23.918;2023-12-20T08:53:33;12.73;;;7.30;;
40591;SDS011;26301;42.832;23.918;2023-12-20T08:55:59;11.30;;;6.43;;
40591;SDS011;26301;42.832;23.918;2023-12-20T08:58:27;4.13;;;2.13;;
40591;SDS011;26301;42.832;23.918;2023-12-20T09:00:53;5.22;;;3.08;;
40591;SDS011;26301;42.832;23.918;2023-12-20T09:03:19;4.82;;;2.47;;
40591;SDS011;26301;42.832;23.918;2023-12-20T09:05:45;6.40;;;2.22;;
40591;SDS011;26301;42.832;23.918;2023-12-20T09:08:11;5.13;;;2.45;;
40591;SDS011;26301;42.832;23.918;2023-12-20T09:10:38;4.70;;;2.50;;
40591;SDS011;26301;42.832;23.918;2023-12-20T09:13:04;6.28;;;3.42;;
40591;SDS011;26301;42.832;23.918;2023-12-20T09:15:29;4.95;;;2.85;;
40591;SDS011;26301;42.832;23.918;2023-12-20T09:17:55;6.22;;;2.75;;
40591;SDS011;26301;42.832;23.918;2023-12-20T09:20:21;3.63;;;1.70;;
40591;SDS011;26301;42.832;23.918;2023-12-20T09:22:49;3.13;;;1.80;;
40591;SDS011;26301;42.832;23.918;2023-12-20T09:25:15;3.67;;;1.77;;
40591;SDS011;26301;42.832;23.918;2023-12-20T09:27:43;3.55;;;1.65;;
40591;SDS011;26301;42.832;23.918;2023-12-20T09:30:09;2.25;;;1.13;;
40591;SDS011;26301;42.832;23.918;2023-12-20T09:32:35;1.90;;;0.98;;
40591;SDS011;26301;42.832;23.918;2023-12-20T09:35:03;1.95;;;1.40;;
40591;SDS011;26301;42.832;23.918;2023-12-20T09:37:31;2.78;;;1.52;;
40591;SDS011;26301;42.832;23.918;2023-12-20T09:39:56;2.55;;;1.15;;
40591;SDS011;26301;42.832;23.918;2023-12-20T09:42:37;2.35;;;1.20;;
40591;SDS011;26301;42.832;23.918;2023-12-20T09:45:12;1.15;;;0.63;;
40591;SDS011;26301;42.832;23.918;2023-12-20T09:47:43;0.93;;;0.63;;
40591;SDS011;26301;42.832;23.918;2023-12-20T09:50:10;1.08;;;0.52;;
40591;SDS011;26301;42.832;23.918;2023-12-20T09:52:37;1.02;;;0.60;;
40591;SDS011;26301;42.832;23.918;2023-12-20T09:55:05;0.80;;;0.60;;
40591;SDS011;26301;42.832;23.918;2023-12-20T09:57:35;1.55;;;0.70;;
40591;SDS011;26301;42.832;23.918;2023-12-20T10:00:01;2.47;;;0.82;;
40591;SDS011;26301;42.832;23.918;2023-12-20T10:02:50;2.83;;;1.05;;
40591;SDS011;26301;42.832;23.918;2023-12-20T10:05:27;4.10;;;1.70;;
40591;SDS011;26301;42.832;23.918;2023-12-20T10:07:54;2.90;;;1.45;;
40591;SDS011;26301;42.832;23.918;2023-12-20T10:10:20;1.50;;;1.10;;
40591;SDS011;26301;42.832;23.918;2023-12-20T10:13:00;2.92;;;1.63;;
40591;SDS011;26301;42.832;23.918;2023-12-20T10:15:28;2.63;;;1.15;;
40591;SDS011;26301;42.832;23.918;2023-12-20T10:17:54;2.25;;;1.00;;
40591;SDS011;26301;42.832;23.918;2023-12-20T10:20:21;3.22;;;1.00;;
40591;SDS011;26301;42.832;23.918;2023-12-20T10:22:47;1.55;;;0.60;;
40591;SDS011;26301;42.832;23.918;2023-12-20T10:25:14;0.63;;;0.55;;
40591;SDS011;26301;42.832;23.918;2023-12-20T10:27:40;0.90;;;0.55;;
40591;SDS011;26301;42.832;23.918;2023-12-20T10:30:06;0.30;;;0.30;;
40591;SDS011;26301;42.832;23.918;2023-12-20T10:32:32;0.40;;;0.40;;
40591;SDS011;26301;42.832;23.918;2023-12-20T10:34:58;2.95;;;0.98;;
40591;SDS011;26301;42.832;23.918;2023-12-20T10:37:24;1.88;;;0.90;;
40591;SDS011;26301;42.832;23.918;2023-12-20T10:39:52;1.60;;;0.95;;
40591;SDS011;26301;42.832;23.918;2023-12-20T10:42:21;1.48;;;0.90;;
40591;SDS011;26301;42.832;23.918;2023-12-20T10:44:51;0.30;;;0.30;;
40591;SDS011;26301;42.832;23.918;2023-12-20T10:47:19;1.00;;;0.40;;
40591;SDS011;26301;42.832;23.918;2023-12-20T10:49:46;0.57;;;0.40;;
40591;SDS011;26301;42.832;23.918;2023-12-20T10:52:13;0.73;;;0.50;;
40591;SDS011;26301;42.832;23.918;2023-12-20T10:54:39;0.70;;;0.47;;
40591;SDS011;26301;42.832;23.918;2023-12-20T10:57:06;1.27;;;0.75;;
40591;SDS011;26301;42.832;23.918;2023-12-20T10:59:33;1.63;;;0.80;;
40591;SDS011;26301;42.832;23.918;2023-12-20T11:02:02;1.27;;;0.60;;
40591;SDS011;26301;42.832;23.918;2023-12-20T11:07:17;0.43;;;0.30;;
40591;SDS011;26301;42.832;23.918;2023-12-20T11:09:49;0.38;;;0.38;;
40591;SDS011;26301;42.832;23.918;2023-12-20T11:12:28;1.55;;;0.45;;
40591;SDS011;26301;42.832;23.918;2023-12-20T11:15:04;0.50;;;0.40;;
40591;SDS011;26301;42.832;23.918;2023-12-20T11:17:31;1.75;;;0.30;;
40591;SDS011;26301;42.832;23.918;2023-12-20T11:22:30;0.90;;;0.30;;
40591;SDS011;26301;42.832;23.918;2023-12-20T11:25:04;0.30;;;0.30;;
40591;SDS011;26301;42.832;23.918;2023-12-20T11:27:35;0.30;;;0.30;;
40591;SDS011;26301;42.832;23.918;2023-12-20T11:30:04;0.60;;;0.40;;
40591;SDS011;26301;42.832;23.918;2023-12-20T11:32:35;0.38;;;0.30;;
40591;SDS011;26301;42.832;23.918;2023-12-20T11:37:37;0.25;;;0.25;;
40591;SDS011;26301;42.832;23.918;2023-12-20T11:40:08;0.73;;;0.50;;
40591;SDS011;26301;42.832;23.918;2023-12-20T11:42:38;1.20;;;0.60;;
40591;SDS011;26301;42.832;23.918;2023-12-20T11:45:15;0.82;;;0.60;;
40591;SDS011;26301;42.832;23.918;2023-12-20T11:47:48;0.50;;;0.40;;
40591;SDS011;26301;42.832;23.918;2023-12-20T11:50:15;0.57;;;0.52;;
40591;SDS011;26301;42.832;23.918;2023-12-20T11:52:42;0.43;;;0.43;;
40591;SDS011;26301;42.832;23.918;2023-12-20T11:55:08;0.68;;;0.40;;
40591;SDS011;26301;42.832;23.918;2023-12-20T11:57:33;0.55;;;0.52;;
40591;SDS011;26301;42.832;23.918;2023-12-20T12:00:01;1.13;;;0.60;;
40591;SDS011;26301;42.832;23.918;2023-12-20T12:02:29;0.80;;;0.50;;
40591;SDS011;26301;42.832;23.918;2023-12-20T12:04:56;1.98;;;0.40;;
40591;SDS011;26301;42.832;23.918;2023-12-20T12:07:24;0.60;;;0.50;;
40591;SDS011;26301;42.832;23.918;2023-12-20T12:09:50;0.32;;;0.30;;
40591;SDS011;26301;42.832;23.918;2023-12-20T12:12:16;0.57;;;0.47;;
40591;SDS011;26301;42.832;23.918;2023-12-20T12:14:44;0.40;;;0.38;;
40591;SDS011;26301;42.832;23.918;2023-12-20T12:17:14;0.25;;;0.25;;
40591;SDS011;26301;42.832;23.918;2023-12-20T12:19:41;1.08;;;0.50;;
40591;SDS011;26301;42.832;23.918;2023-12-20T12:22:10;0.73;;;0.57;;
40591;SDS011;26301;42.832;23.918;2023-12-20T12:24:48;0.50;;;0.43;;
40591;SDS011;26301;42.832;23.918;2023-12-20T12:27:15;0.30;;;0.30;;
40591;SDS011;26301;42.832;23.918;2023-12-20T12:29:41;0.70;;;0.70;;
40591;SDS011;26301;42.832;23.918;2023-12-20T12:32:27;1.00;;;0.60;;
40591;SDS011;26301;42.832;23.918;2023-12-20T12:34:53;1.77;;;0.50;;
40591;SDS011;26301;42.832;23.918;2023-12-20T12:37:19;0.60;;;0.60;;
40591;SDS011;26301;42.832;23.918;2023-12-20T12:39:48;1.45;;;0.65;;
40591;SDS011;26301;42.832;23.918;2023-12-20T12:42:14;0.60;;;0.50;;
40591;SDS011;26301;42.832;23.918;2023-12-20T12:44:40;0.80;;;0.60;;
40591;SDS011;26301;42.832;23.918;2023-12-20T12:47:07;1.08;;;0.60;;
40591;SDS011;26301;42.832;23.918;2023-12-20T12:49:33;1.65;;;1.00;;
40591;SDS011;26301;42.832;23.918;2023-12-20T12:51:59;1.35;;;0.75;;
40591;SDS011;26301;42.832;23.918;2023-12-20T12:54:25;0.82;;;0.60;;
40591;SDS011;26301;42.832;23.918;2023-12-20T12:56:52;1.48;;;0.95;;
40591;SDS011;26301;42.832;23.918;2023-12-20T12:59:18;1.00;;;0.60;;
40591;SDS011;26301;42.832;23.918;2023-12-20T13:01:44;1.38;;;0.70;;
40591;SDS011;26301;42.832;23.918;2023-12-20T13:04:10;1.48;;;0.57;;
40591;SDS011;26301;42.832;23.918;2023-12-20T13:06:38;2.03;;;0.75;;
40591;SDS011;26301;42.832;23.918;2023-12-20T13:09:09;0.65;;;0.55;;
40591;SDS011;26301;42.832;23.918;2023-12-20T13:11:36;1.45;;;0.80;;
40591;SDS011;26301;42.832;23.918;2023-12-20T13:14:02;1.55;;;0.95;;
40591;SDS011;26301;42.832;23.918;2023-12-20T13:16:29;1.48;;;0.82;;
40591;SDS011;26301;42.832;23.918;2023-12-20T13:18:55;1.33;;;0.80;;
40591;SDS011;26301;42.832;23.918;2023-12-20T13:21:27;1.10;;;0.88;;
40591;SDS011;26301;42.832;23.918;2023-12-20T13:23:55;1.80;;;1.10;;
40591;SDS011;26301;42.832;23.918;2023-12-20T13:26:21;0.77;;;0.70;;
40591;SDS011;26301;42.832;23.918;2023-12-20T13:28:48;1.58;;;0.90;;
40591;SDS011;26301;42.832;23.918;2023-12-20T13:31:14;3.30;;;1.45;;
40591;SDS011;26301;42.832;23.918;2023-12-20T13:33:40;2.50;;;1.35;;
40591;SDS011;26301;42.832;23.918;2023-12-20T13:36:09;2.13;;;1.05;;
40591;SDS011;26301;42.832;23.918;2023-12-20T13:38:35;3.95;;;1.75;;
40591;SDS011;26301;42.832;23.918;2023-12-20T13:41:01;3.20;;;1.85;;
40591;SDS011;26301;42.832;23.918;2023-12-20T13:43:27;4.13;;;1.95;;
40591;SDS011;26301;42.832;23.918;2023-12-20T13:45:53;5.65;;;2.63;;
40591;SDS011;26301;42.832;23.918;2023-12-20T13:48:19;6.53;;;3.20;;
40591;SDS011;26301;42.832;23.918;2023-12-20T13:50:45;5.68;;;2.83;;
40591;SDS011;26301;42.832;23.918;2023-12-20T13:53:11;13.60;;;6.93;;
40591;SDS011;26301;42.832;23.918;2023-12-20T13:55:38;3.50;;;2.00;;
40591;SDS011;26301;42.832;23.918;2023-12-20T13:58:04;5.85;;;2.30;;
40591;SDS011;26301;42.832;23.918;2023-12-20T14:00:30;7.72;;;2.40;;
40591;SDS011;26301;42.832;23.918;2023-12-20T14:02:56;5.07;;;3.00;;
40591;SDS011;26301;42.832;23.918;2023-12-20T14:05:23;7.15;;;3.97;;
40591;SDS011;26301;42.832;23.918;2023-12-20T14:07:49;10.93;;;4.93;;
40591;SDS011;26301;42.832;23.918;2023-12-20T14:10:16;10.23;;;5.13;;
40591;SDS011;26301;42.832;23.918;2023-12-20T14:12:42;8.52;;;3.00;;
40591;SDS011;26301;42.832;23.918;2023-12-20T14:15:10;5.15;;;2.70;;
40591;SDS011;26301;42.832;23.918;2023-12-20T14:17:38;4.65;;;1.90;;
40591;SDS011;26301;42.832;23.918;2023-12-20T14:20:07;2.90;;;1.40;;
40591;SDS011;26301;42.832;23.918;2023-12-20T14:22:36;3.05;;;1.73;;
40591;SDS011;26301;42.832;23.918;2023-12-20T14:25:04;2.13;;;1.50;;
40591;SDS011;26301;42.832;23.918;2023-12-20T14:27:31;4.15;;;1.70;;
40591;SDS011;26301;42.832;23.918;2023-12-20T14:29:57;3.35;;;1.55;;
40591;SDS011;26301;42.832;23.918;2023-12-20T14:32:24;3.35;;;1.60;;
40591;SDS011;26301;42.832;23.918;2023-12-20T14:34:52;5.22;;;1.80;;
40591;SDS011;26301;42.832;23.918;2023-12-20T14:37:20;3.42;;;1.50;;
40591;SDS011;26301;42.832;23.918;2023-12-20T14:39:46;5.25;;;2.72;;